createdAt,value
2022-12-07T04:09:05.519Z,2.51
2022-12-07T04:12:08.189Z,2.49
2022-12-07T04:15:10.820Z,2.57
2022-12-07T04:18:13.116Z,2.65
2022-12-07T04:21:15.290Z,2.69
2022-12-07T04:24:18.196Z,2.75
2022-12-07T04:27:20.252Z,2.83
2022-12-07T04:30:22.840Z,2.88
2022-12-07T04:33:24.876Z,2.96
2022-12-07T04:36:27.366Z,3.04
2022-12-07T04:39:33.627Z,3.16
2022-12-07T04:42:35.985Z,3.15
2022-12-07T04:45:38.081Z,3.13
2022-12-07T04:48:40.416Z,3.14
2022-12-07T04:51:43.464Z,3.18
2022-12-07T04:54:45.840Z,3.26
2022-12-07T04:57:47.944Z,3.30
2022-12-07T05:00:50.324Z,3.41
2022-12-07T05:03:52.805Z,3.46
2022-12-07T05:06:55.118Z,3.48
2022-12-07T05:09:57.172Z,3.54
2022-12-07T05:12:59.473Z,3.51
2022-12-07T05:16:01.628Z,3.28
2022-12-07T05:19:04.718Z,3.08
2022-12-07T05:22:06.819Z,3.14
2022-12-07T05:25:09.461Z,3.05
2022-12-07T05:28:11.771Z,2.95
2022-12-07T05:31:14.245Z,2.92
2022-12-07T05:34:16.374Z,2.82
2022-12-07T05:37:18.680Z,2.72
2022-12-07T05:40:20.829Z,2.71
2022-12-07T05:43:23.209Z,2.65
2022-12-07T05:46:25.425Z,2.59
2022-12-07T05:49:27.820Z,2.52
2022-12-07T05:52:29.995Z,2.56
2022-12-07T05:55:32.341Z,2.47
2022-12-07T05:58:53.000Z,2.62
2022-12-07T06:02:04.346Z,2.50
2022-12-07T06:05:07.375Z,2.42
2022-12-07T06:08:09.948Z,2.41
2022-12-07T06:11:30.972Z,2.41
2022-12-07T06:14:33.021Z,2.37
2022-12-07T06:17:35.341Z,2.37
2022-12-07T06:20:37.397Z,2.37
2022-12-07T06:23:39.810Z,2.59
2022-12-07T06:26:42.183Z,2.74
2022-12-07T06:29:44.544Z,2.83
2022-12-07T06:32:46.605Z,2.78
2022-12-07T06:35:48.949Z,2.89
2022-12-07T06:38:51.013Z,2.89
2022-12-07T06:41:53.792Z,2.86
2022-12-07T06:44:56.007Z,2.76
2022-12-07T06:47:58.416Z,2.73
2022-12-07T06:51:00.984Z,2.84
2022-12-07T06:54:04.924Z,2.80
2022-12-07T06:57:07.029Z,2.70
2022-12-07T07:00:09.977Z,2.71
2022-12-07T07:03:12.819Z,2.77
2022-12-07T07:06:15.692Z,2.82
2022-12-07T07:09:17.990Z,2.90
2022-12-07T07:12:20.437Z,2.85
2022-12-07T07:15:22.671Z,2.89
2022-12-07T07:18:25.748Z,2.88
2022-12-07T07:21:27.877Z,2.86
2022-12-07T07:24:30.263Z,2.90
2022-12-07T07:27:32.382Z,3.03
2022-12-07T07:30:34.869Z,3.06
2022-12-07T07:33:37.354Z,3.12
2022-12-07T07:36:39.683Z,3.06
2022-12-07T07:39:41.763Z,3.09
2022-12-07T07:42:44.207Z,3.09
2022-12-07T07:45:46.503Z,3.10
2022-12-07T07:48:49.071Z,3.17
2022-12-07T07:51:51.195Z,3.31
2022-12-07T07:54:53.844Z,3.36
2022-12-07T07:57:56.051Z,3.54
2022-12-07T08:01:04.676Z,3.50
2022-12-07T08:04:07.066Z,3.72
2022-12-07T08:07:09.181Z,3.93
2022-12-07T08:10:13.202Z,3.89
2022-12-07T08:13:18.193Z,4.08
2022-12-07T08:16:20.602Z,4.40
2022-12-07T08:19:22.786Z,4.59
2022-12-07T08:22:25.177Z,4.84
2022-12-07T08:25:28.554Z,4.98
2022-12-07T08:28:30.976Z,5.25
2022-12-07T08:31:33.145Z,5.77
2022-12-07T08:34:35.551Z,5.76
2022-12-07T08:37:37.795Z,5.60
2022-12-07T08:40:40.299Z,5.42
2022-12-07T08:43:42.744Z,5.79
2022-12-07T08:46:53.698Z,5.66
2022-12-07T08:49:56.055Z,5.75
2022-12-07T08:52:59.754Z,6.04
2022-12-07T08:56:02.462Z,6.63
2022-12-07T08:59:06.458Z,6.77
2022-12-07T09:02:09.114Z,6.64
2022-12-07T09:05:16.595Z,6.67
2022-12-07T09:08:19.438Z,6.84
2022-12-07T09:11:28.323Z,6.99
2022-12-07T09:14:31.005Z,7.25
2022-12-07T09:17:34.546Z,7.59
2022-12-07T09:20:36.609Z,7.54
2022-12-07T09:23:38.954Z,8.14
2022-12-07T09:26:41.500Z,8.62
2022-12-07T09:29:44.027Z,8.58
2022-12-07T09:32:46.236Z,8.13
2022-12-07T09:35:50.523Z,7.95
2022-12-07T09:38:53.048Z,7.73
2022-12-07T09:41:55.431Z,8.09
2022-12-07T09:44:59.465Z,8.70
2022-12-07T09:48:03.208Z,9.84
2022-12-07T09:51:21.144Z,9.92
2022-12-07T09:54:25.978Z,9.60
2022-12-07T09:57:35.511Z,9.58
2022-12-07T10:00:37.905Z,9.42
2022-12-07T10:03:46.074Z,9.37
2022-12-07T10:06:49.012Z,9.37
2022-12-07T10:09:51.607Z,9.24
2022-12-07T10:12:55.161Z,9.39
2022-12-07T10:16:05.055Z,9.61
2022-12-07T10:19:25.312Z,10.02
2022-12-07T10:22:31.919Z,9.81
2022-12-07T10:25:39.252Z,9.66
2022-12-07T10:28:42.432Z,9.19
2022-12-07T10:31:48.372Z,9.46
2022-12-07T10:35:02.370Z,9.59
2022-12-07T10:38:17.650Z,8.68
2022-12-07T10:41:21.092Z,8.68
2022-12-07T10:44:28.892Z,8.60
2022-12-07T10:47:37.600Z,8.64
2022-12-07T10:50:45.190Z,8.54
2022-12-07T10:54:25.361Z,8.85
2022-12-07T10:57:30.223Z,8.78
2022-12-07T11:00:43.816Z,8.28
2022-12-07T11:04:21.161Z,8.02
2022-12-07T11:07:38.999Z,7.66
2022-12-07T11:10:55.240Z,7.78
2022-12-07T11:14:19.278Z,8.59
2022-12-07T11:17:30.067Z,8.67
2022-12-07T11:21:00.664Z,8.40
2022-12-07T11:24:15.168Z,8.62
2022-12-07T11:27:43.463Z,8.35
2022-12-07T11:30:48.312Z,8.25
2022-12-07T11:34:15.897Z,8.38
2022-12-07T11:37:24.816Z,8.54
2022-12-07T11:40:37.406Z,8.19
2022-12-07T11:44:00.180Z,8.03
2022-12-07T11:47:12.833Z,8.04
2022-12-07T11:50:37.138Z,8.02
2022-12-07T11:53:48.464Z,8.87
2022-12-07T11:56:52.868Z,11.31
2022-12-07T12:00:02.821Z,11.65
2022-12-07T12:03:15.142Z,10.26
2022-12-07T12:06:17.710Z,13.42
2022-12-07T12:16:39.010Z,10.51
2022-12-07T12:20:08.144Z,9.75
2022-12-07T12:23:16.077Z,8.72
2022-12-07T12:26:24.785Z,8.57
2022-12-07T12:29:36.975Z,8.36
2022-12-07T12:32:43.347Z,7.87
2022-12-07T12:35:46.398Z,7.60
2022-12-07T12:38:50.313Z,7.27
2022-12-07T12:41:55.471Z,7.16
2022-12-07T12:45:17.924Z,6.75
2022-12-07T12:48:36.560Z,6.67
2022-12-07T12:51:42.018Z,6.83
2022-12-07T12:55:13.357Z,6.88
2022-12-07T12:58:18.711Z,6.90
2022-12-07T13:01:36.163Z,7.15
2022-12-07T13:04:52.621Z,7.36
2022-12-07T13:07:58.920Z,7.36
2022-12-07T13:11:18.528Z,7.36
2022-12-07T13:14:42.622Z,7.33
2022-12-07T13:17:54.644Z,7.20
2022-12-07T13:20:57.368Z,7.23
2022-12-07T13:24:01.015Z,6.92
2022-12-07T13:27:03.708Z,6.92
2022-12-07T13:30:19.024Z,6.81
2022-12-07T13:33:21.352Z,6.42
2022-12-07T13:36:32.601Z,6.22
2022-12-07T13:39:45.069Z,6.04
2022-12-07T13:42:47.430Z,6.14
2022-12-07T13:46:01.750Z,5.94
2022-12-07T13:49:19.321Z,5.84
2022-12-07T13:52:31.448Z,5.74
2022-12-07T13:55:33.893Z,5.64
2022-12-07T13:58:36.009Z,5.71
2022-12-07T14:01:38.416Z,5.74
2022-12-07T14:04:40.951Z,5.80
2022-12-07T14:07:58.682Z,5.81
2022-12-07T14:11:01.482Z,5.78
2022-12-07T14:14:04.405Z,5.93
2022-12-07T14:17:18.518Z,5.86
2022-12-07T14:20:37.360Z,5.63
2022-12-07T14:23:40.943Z,5.62
2022-12-07T14:26:43.441Z,5.58
2022-12-07T14:29:45.822Z,5.56
2022-12-07T14:32:55.365Z,5.33
2022-12-07T14:35:59.375Z,5.13
2022-12-07T14:39:01.655Z,4.93
2022-12-07T14:42:04.160Z,4.97
2022-12-07T14:45:07.547Z,4.82
2022-12-07T14:55:04.095Z,4.45
2022-12-07T14:58:14.621Z,4.12
2022-12-07T15:01:17.024Z,3.95
2022-12-07T15:04:19.205Z,3.89
2022-12-07T15:07:22.897Z,3.89
2022-12-07T15:10:32.474Z,3.75
2022-12-07T15:13:53.364Z,3.66
2022-12-07T15:17:15.805Z,3.52
2022-12-07T15:20:18.029Z,3.47
2022-12-07T15:23:20.514Z,3.40
2022-12-07T15:26:23.181Z,3.23
2022-12-07T15:29:25.310Z,3.15
2022-12-07T15:32:27.716Z,3.02
2022-12-07T15:35:29.876Z,2.90
2022-12-07T15:39:05.166Z,2.84
2022-12-07T15:41:54.330Z,2.73
2022-12-07T15:45:06.277Z,2.64
2022-12-07T15:51:30.999Z,2.57
2022-12-07T15:54:33.570Z,2.39
2022-12-07T15:57:38.024Z,2.39
2022-12-07T16:00:40.103Z,2.43
2022-12-07T16:03:43.518Z,2.38
2022-12-07T16:06:45.679Z,2.46
2022-12-07T16:09:48.442Z,2.45
2022-12-07T16:12:50.511Z,2.49
2022-12-07T16:15:52.927Z,2.37
2022-12-07T16:18:55.170Z,2.45
2022-12-07T16:21:57.658Z,2.49
